createdAt,value
2017-08-14T00:02:01.471Z,4.17
2017-08-14T00:04:29.787Z,3.47
2017-08-14T00:06:57.353Z,4.83
2017-08-14T00:09:24.938Z,4.77
2017-08-14T00:11:52.480Z,4.63
2017-08-14T00:14:20.030Z,4.03
2017-08-14T00:16:47.593Z,3.70
2017-08-14T00:19:15.165Z,5.60
2017-08-14T00:21:42.704Z,4.13
2017-08-14T00:24:10.265Z,4.00
2017-08-14T00:26:37.844Z,4.20
2017-08-14T00:29:05.400Z,3.80
2017-08-14T00:31:32.925Z,3.90
2017-08-14T00:34:00.484Z,4.00
2017-08-14T00:36:28.014Z,3.33
2017-08-14T00:38:56.313Z,4.30
2017-08-14T00:41:23.863Z,3.67
2017-08-14T00:43:51.396Z,4.57
2017-08-14T00:46:18.950Z,3.60
2017-08-14T00:48:46.481Z,4.20
2017-08-14T00:51:14.012Z,3.70
2017-08-14T00:53:41.561Z,5.07
2017-08-14T00:56:09.861Z,4.53
2017-08-14T00:58:37.409Z,3.30
2017-08-14T01:01:05.012Z,4.03
2017-08-14T01:03:32.547Z,5.27
2017-08-14T01:06:00.125Z,3.60
2017-08-14T01:08:27.661Z,3.57
2017-08-14T01:10:55.225Z,3.70
2017-08-14T01:13:22.760Z,4.43
2017-08-14T01:15:51.056Z,3.70
2017-08-14T01:18:18.617Z,3.80
2017-08-14T01:20:46.152Z,4.10
2017-08-14T01:23:14.466Z,4.10
2017-08-14T01:25:42.004Z,5.23
2017-08-14T01:28:09.570Z,4.47
2017-08-14T01:30:37.124Z,5.17
2017-08-14T01:33:04.661Z,4.70
2017-08-14T01:35:32.986Z,5.10
2017-08-14T01:38:00.530Z,4.80
2017-08-14T01:40:28.068Z,4.30
2017-08-14T01:42:55.618Z,4.20
2017-08-14T01:45:23.916Z,4.93
2017-08-14T01:47:51.468Z,3.67
2017-08-14T01:50:19.017Z,4.70
2017-08-14T01:52:46.584Z,4.57
2017-08-14T01:55:14.895Z,4.70
2017-08-14T01:57:42.445Z,5.95
2017-08-14T02:00:10.029Z,4.93
2017-08-14T02:02:37.584Z,4.63
2017-08-14T02:05:05.126Z,5.23
2017-08-14T02:07:32.667Z,5.20
2017-08-14T02:10:00.222Z,5.30
2017-08-14T02:12:28.517Z,5.53
2017-08-14T02:14:56.073Z,5.23
2017-08-14T02:17:23.604Z,8.30
2017-08-14T02:19:51.930Z,5.93
2017-08-14T02:22:19.466Z,9.88
2017-08-14T02:24:47.008Z,6.00
2017-08-14T02:27:15.337Z,5.70
2017-08-14T02:29:42.873Z,5.90
2017-08-14T02:32:10.427Z,6.07
2017-08-14T02:34:37.972Z,5.60
2017-08-14T02:37:05.509Z,4.97
2017-08-14T02:39:33.845Z,6.20
2017-08-14T02:42:01.403Z,4.50
2017-08-14T02:44:28.929Z,7.70
2017-08-14T02:46:56.492Z,6.10
2017-08-14T02:49:24.025Z,6.80
2017-08-14T02:51:52.357Z,5.60
2017-08-14T02:54:19.882Z,6.60
2017-08-14T02:56:48.177Z,6.67
2017-08-14T02:59:15.736Z,7.03
2017-08-14T03:01:43.262Z,5.97
2017-08-14T03:04:11.596Z,4.87
2017-08-14T03:06:39.120Z,5.40
2017-08-14T03:09:06.682Z,5.20
2017-08-14T03:11:34.217Z,5.97
2017-08-14T03:14:01.768Z,5.27
2017-08-14T03:16:29.315Z,5.73
2017-08-14T03:18:56.852Z,5.20
2017-08-14T03:21:24.397Z,6.03
2017-08-14T03:23:51.949Z,6.23
2017-08-14T03:26:19.491Z,8.13
2017-08-14T03:28:47.026Z,5.53
2017-08-14T03:31:14.597Z,118.83
2017-08-14T03:33:42.912Z,9.43
2017-08-14T03:36:10.441Z,7.60
2017-08-14T03:38:38.740Z,14.00
2017-08-14T03:41:06.321Z,9.73
2017-08-14T03:43:33.875Z,10.03
2017-08-14T03:46:01.441Z,12.20
2017-08-14T03:48:29.215Z,9.20
2017-08-14T03:50:56.799Z,7.10
2017-08-14T03:53:24.369Z,7.27
2017-08-14T03:55:51.901Z,8.10
2017-08-14T03:58:19.450Z,7.07
2017-08-14T04:00:46.987Z,8.10
2017-08-14T04:03:14.508Z,8.05
2017-08-14T04:05:42.050Z,7.30
2017-08-14T04:08:10.371Z,8.07
2017-08-14T04:10:37.926Z,9.53
2017-08-14T04:13:05.492Z,8.00
2017-08-14T04:15:33.046Z,7.72
2017-08-14T04:18:00.576Z,8.90
2017-08-14T04:20:28.876Z,11.10
2017-08-14T04:22:56.432Z,9.15
2017-08-14T04:25:23.968Z,8.63
2017-08-14T04:27:52.293Z,13.50
2017-08-14T04:30:19.830Z,6.82
2017-08-14T04:32:47.386Z,9.48
2017-08-14T04:35:14.929Z,6.65
2017-08-14T04:37:42.496Z,7.03
2017-08-14T04:40:10.030Z,8.52
2017-08-14T04:42:38.332Z,7.20
2017-08-14T04:45:05.890Z,7.25
2017-08-14T04:47:33.425Z,6.60
2017-08-14T04:50:01.713Z,7.22
2017-08-14T04:52:30.039Z,7.47
2017-08-14T04:54:57.577Z,5.55
2017-08-14T04:57:25.126Z,6.37
2017-08-14T04:59:52.665Z,6.32
2017-08-14T05:02:21.003Z,7.95
2017-08-14T05:04:48.542Z,7.97
2017-08-14T05:07:16.096Z,6.13
2017-08-14T05:09:43.630Z,7.35
2017-08-14T05:12:11.929Z,7.75
2017-08-14T05:14:39.484Z,7.20
2017-08-14T05:17:07.018Z,8.57
2017-08-14T05:19:35.319Z,10.82
2017-08-14T05:22:02.878Z,7.43
2017-08-14T05:24:30.412Z,14.63
2017-08-14T05:26:58.709Z,8.88
2017-08-14T05:29:26.280Z,7.15
2017-08-14T05:31:53.837Z,8.67
2017-08-14T05:34:21.383Z,8.20
2017-08-14T05:36:48.929Z,8.23
2017-08-14T05:39:17.229Z,8.90
2017-08-14T05:41:44.778Z,7.90
2017-08-14T05:44:13.101Z,6.90
2017-08-14T05:46:40.647Z,10.73
2017-08-14T05:49:08.171Z,8.20
2017-08-14T05:51:36.477Z,7.93
2017-08-14T05:54:04.013Z,8.33
2017-08-14T05:56:32.333Z,7.10
2017-08-14T05:58:59.864Z,11.03
2017-08-14T06:01:27.385Z,7.20
2017-08-14T06:03:54.945Z,6.83
2017-08-14T06:06:22.477Z,6.17
2017-08-14T06:08:50.020Z,7.03
2017-08-14T06:11:17.560Z,6.80
2017-08-14T06:13:45.088Z,6.63
2017-08-14T06:16:12.645Z,6.90
2017-08-14T06:18:40.261Z,6.23
2017-08-14T06:21:07.804Z,6.40
2017-08-14T06:23:35.360Z,6.00
2017-08-14T06:26:02.893Z,6.13
2017-08-14T06:28:31.252Z,5.30
2017-08-14T06:30:58.790Z,4.80
2017-08-14T06:33:26.324Z,4.73
2017-08-14T06:35:53.874Z,3.60
2017-08-14T06:38:21.400Z,4.10
2017-08-14T06:40:48.953Z,5.70
2017-08-14T06:43:16.477Z,4.13
2017-08-14T06:45:44.006Z,3.70
2017-08-14T06:48:11.556Z,3.20
2017-08-14T06:50:39.853Z,2.60
2017-08-14T06:53:07.401Z,3.50
2017-08-14T06:55:34.948Z,3.10
2017-08-14T06:58:03.236Z,3.10
2017-08-14T07:00:30.802Z,3.23
2017-08-14T07:02:58.335Z,2.43
2017-08-14T07:05:26.633Z,2.23
2017-08-14T07:07:54.177Z,3.43
2017-08-14T07:10:22.461Z,2.03
2017-08-14T07:12:50.775Z,1.50
2017-08-14T07:15:18.312Z,1.93
2017-08-14T07:17:45.849Z,2.97
2017-08-14T07:20:14.172Z,1.60
2017-08-14T07:22:41.723Z,1.80
2017-08-14T07:25:09.261Z,1.60
2017-08-14T07:27:36.851Z,1.30
2017-08-14T07:30:04.373Z,1.57
2017-08-14T07:32:32.693Z,2.80
2017-08-14T07:35:00.224Z,1.13
2017-08-14T07:37:27.748Z,1.50
2017-08-14T07:39:55.304Z,1.47
2017-08-14T07:42:22.820Z,1.70
2017-08-14T07:44:50.356Z,1.53
2017-08-14T07:47:18.666Z,1.43
2017-08-14T07:49:46.217Z,1.20
2017-08-14T07:52:13.751Z,1.57
2017-08-14T07:54:41.288Z,1.60
2017-08-14T07:57:09.614Z,1.40
2017-08-14T07:59:37.164Z,1.30
2017-08-14T08:02:04.711Z,1.40
2017-08-14T08:04:32.241Z,1.40
2017-08-14T08:06:59.793Z,1.57
2017-08-14T08:09:27.340Z,1.40
2017-08-14T08:11:54.876Z,3.17
2017-08-14T08:14:22.460Z,1.73
2017-08-14T08:16:49.992Z,1.40
2017-08-14T08:19:17.533Z,1.60
2017-08-14T08:21:45.061Z,2.60
2017-08-14T08:24:12.604Z,1.10
2017-08-14T08:26:40.145Z,1.27
2017-08-14T08:29:07.667Z,1.20
2017-08-14T08:31:35.212Z,1.20
2017-08-14T08:34:03.506Z,1.43
2017-08-14T08:36:31.045Z,1.33
2017-08-14T08:38:59.338Z,1.77
2017-08-14T08:41:26.903Z,1.40
2017-08-14T08:43:54.429Z,1.20
2017-08-14T08:46:21.981Z,1.57
2017-08-14T08:48:49.505Z,1.37
2017-08-14T08:51:17.045Z,1.23
2017-08-14T08:53:44.590Z,1.40
2017-08-14T08:56:12.121Z,1.40
2017-08-14T08:58:39.649Z,3.13
2017-08-14T09:01:07.212Z,1.47
2017-08-14T09:03:34.737Z,1.10
2017-08-14T09:06:02.328Z,1.37
2017-08-14T09:08:29.853Z,1.20
2017-08-14T09:10:57.448Z,1.27
2017-08-14T09:13:25.013Z,1.90
2017-08-14T09:15:52.533Z,2.43
2017-08-14T09:18:20.105Z,1.17
2017-08-14T09:20:47.631Z,1.20
2017-08-14T09:23:15.917Z,1.33
2017-08-14T09:25:44.226Z,2.80
2017-08-14T09:28:11.761Z,1.53
2017-08-14T09:30:40.077Z,3.03
2017-08-14T09:33:07.610Z,1.33
2017-08-14T09:35:35.163Z,3.10
2017-08-14T09:38:02.687Z,1.60
2017-08-14T09:40:30.209Z,1.80
2017-08-14T09:42:57.766Z,2.90
2017-08-14T09:45:25.305Z,1.80
2017-08-14T09:47:52.845Z,1.23
2017-08-14T09:50:21.138Z,1.63
2017-08-14T09:52:48.721Z,1.60
2017-08-14T09:55:16.280Z,1.50
2017-08-14T09:57:43.813Z,1.20
2017-08-14T10:00:11.343Z,2.13
2017-08-14T10:02:38.904Z,2.50
2017-08-14T10:05:06.429Z,1.20
2017-08-14T10:07:33.965Z,1.30
2017-08-14T10:10:01.542Z,1.57
2017-08-14T10:12:29.090Z,1.70
2017-08-14T10:14:56.625Z,2.70
2017-08-14T10:17:24.181Z,1.37
2017-08-14T10:19:52.511Z,1.50
2017-08-14T10:22:20.057Z,1.40
2017-08-14T10:24:47.605Z,1.93
2017-08-14T10:27:15.137Z,1.97
2017-08-14T10:29:43.445Z,1.33
2017-08-14T10:32:10.964Z,1.97
2017-08-14T10:34:39.270Z,1.50
2017-08-14T10:37:06.849Z,0.97
2017-08-14T10:39:34.406Z,1.77
2017-08-14T10:42:01.968Z,1.90
2017-08-14T10:44:29.520Z,1.50
2017-08-14T10:46:57.046Z,1.20
2017-08-14T10:49:25.358Z,1.10
2017-08-14T10:51:52.893Z,1.20
2017-08-14T10:54:20.445Z,0.90
2017-08-14T10:56:48.733Z,1.20
2017-08-14T10:59:16.268Z,0.97
2017-08-14T11:01:43.829Z,1.10
2017-08-14T11:04:11.352Z,1.23
2017-08-14T11:06:38.909Z,1.37
2017-08-14T11:09:06.449Z,1.00
2017-08-14T11:11:34.034Z,1.10
2017-08-14T11:14:01.581Z,1.23
2017-08-14T11:16:29.118Z,1.33
2017-08-14T11:18:56.683Z,1.20
2017-08-14T11:21:24.210Z,1.50
2017-08-14T11:23:52.537Z,1.20
2017-08-14T11:26:20.108Z,1.50
2017-08-14T11:28:47.660Z,1.83
2017-08-14T11:31:15.212Z,1.30
2017-08-14T11:33:42.745Z,3.23
2017-08-14T11:36:10.284Z,1.47
2017-08-14T11:38:38.590Z,1.77
2017-08-14T11:41:06.144Z,1.30
2017-08-14T11:43:33.692Z,1.30
2017-08-14T11:46:02.025Z,1.27
2017-08-14T11:48:29.572Z,1.40
2017-08-14T11:50:57.286Z,2.83
2017-08-14T11:53:25.602Z,1.10
2017-08-14T11:55:53.137Z,1.23
2017-08-14T11:58:21.429Z,1.50
2017-08-14T12:00:49.019Z,1.50
2017-08-14T12:03:16.578Z,1.30
2017-08-14T12:05:44.098Z,3.80
2017-08-14T12:08:11.632Z,2.40
2017-08-14T12:10:39.177Z,1.30
2017-08-14T12:13:06.731Z,1.30
2017-08-14T12:15:34.265Z,2.80
2017-08-14T12:18:01.925Z,1.20
2017-08-14T12:20:29.482Z,1.57
2017-08-14T12:22:57.009Z,2.67
2017-08-14T12:25:25.315Z,1.40
2017-08-14T12:27:52.877Z,2.30
2017-08-14T12:30:20.419Z,1.20
2017-08-14T12:32:47.961Z,1.67
2017-08-14T12:35:16.252Z,1.53
2017-08-14T12:37:43.800Z,1.33
2017-08-14T12:40:12.116Z,1.97
2017-08-14T12:42:39.655Z,1.50
2017-08-14T12:45:07.315Z,1.50
2017-08-14T12:47:34.856Z,1.30
2017-08-14T12:50:03.149Z,1.20
2017-08-14T12:52:30.700Z,1.33
2017-08-14T12:54:58.986Z,1.30
2017-08-14T12:57:26.533Z,1.10
2017-08-14T12:59:54.849Z,1.53
2017-08-14T13:02:22.374Z,1.33
2017-08-14T13:04:49.929Z,1.30
2017-08-14T13:07:18.222Z,1.10
2017-08-14T13:09:45.768Z,2.00
2017-08-14T13:12:14.061Z,1.10
2017-08-14T13:14:41.591Z,1.27
2017-08-14T13:17:09.929Z,1.83
2017-08-14T13:19:37.469Z,1.50
2017-08-14T13:22:04.997Z,1.53
2017-08-14T13:24:33.302Z,1.40
2017-08-14T13:27:00.826Z,1.40
2017-08-14T13:29:29.144Z,1.77
2017-08-14T13:31:56.692Z,1.63
2017-08-14T13:34:24.242Z,1.40
2017-08-14T13:36:51.785Z,1.27
2017-08-14T13:39:20.079Z,1.20
2017-08-14T13:41:47.649Z,1.63
2017-08-14T13:44:15.168Z,1.63
2017-08-14T13:46:42.690Z,1.50
2017-08-14T13:49:10.248Z,1.67
2017-08-14T13:51:37.785Z,2.60
2017-08-14T13:54:05.342Z,1.40
2017-08-14T13:56:32.869Z,1.40
2017-08-14T13:59:00.426Z,1.50
2017-08-14T14:01:27.978Z,1.67
2017-08-14T14:03:55.526Z,1.40
2017-08-14T14:06:23.077Z,1.57
2017-08-14T14:08:50.613Z,1.30
2017-08-14T14:11:18.136Z,1.43
2017-08-14T14:13:46.444Z,1.10
2017-08-14T14:16:13.974Z,2.20
2017-08-14T14:18:42.273Z,1.47
2017-08-14T14:21:09.830Z,1.40
2017-08-14T14:23:37.357Z,1.60
2017-08-14T14:26:04.906Z,1.60
2017-08-14T14:28:32.443Z,1.30
2017-08-14T14:30:59.968Z,1.90
2017-08-14T14:33:27.539Z,1.60
2017-08-14T14:35:55.104Z,1.53
2017-08-14T14:38:22.665Z,1.63
2017-08-14T14:40:50.188Z,1.57
2017-08-14T14:43:18.506Z,1.67
2017-08-14T14:45:46.046Z,1.80
2017-08-14T14:48:13.613Z,1.67
2017-08-14T14:50:41.129Z,1.50
2017-08-14T14:53:08.682Z,1.60
2017-08-14T14:55:36.217Z,1.70
2017-08-14T14:58:03.737Z,1.60
2017-08-14T15:00:31.265Z,1.73
2017-08-14T15:02:58.816Z,1.70
2017-08-14T15:05:26.348Z,1.50
2017-08-14T15:07:53.898Z,1.70
2017-08-14T15:10:21.458Z,1.90
2017-08-14T15:12:49.043Z,1.97
2017-08-14T15:15:16.613Z,1.83
2017-08-14T15:17:44.154Z,1.60
2017-08-14T15:20:11.707Z,3.20
2017-08-14T15:22:39.229Z,1.60
2017-08-14T15:25:06.778Z,1.73
2017-08-14T15:27:35.069Z,1.70
2017-08-14T15:30:02.868Z,2.00
2017-08-14T15:32:30.400Z,1.53
2017-08-14T15:34:57.920Z,1.67
2017-08-14T15:37:25.469Z,1.80
2017-08-14T15:39:53.017Z,2.03
2017-08-14T15:42:20.541Z,1.87
2017-08-14T15:44:48.092Z,3.47
2017-08-14T15:47:15.616Z,1.80
2017-08-14T15:49:43.144Z,1.80
2017-08-14T15:52:10.693Z,1.67
2017-08-14T15:54:38.221Z,2.17
2017-08-14T15:57:06.537Z,1.93
2017-08-14T15:59:34.077Z,1.60
2017-08-14T16:02:01.605Z,1.80
2017-08-14T16:04:29.933Z,1.90
2017-08-14T16:06:57.452Z,1.90
2017-08-14T16:09:25.019Z,1.80
2017-08-14T16:11:52.606Z,1.77
2017-08-14T16:14:20.165Z,2.07
2017-08-14T16:16:47.709Z,1.77
2017-08-14T16:19:15.238Z,3.73
2017-08-14T16:21:42.793Z,2.43
2017-08-14T16:24:10.324Z,2.30
2017-08-14T16:26:37.878Z,1.80
2017-08-14T16:29:05.429Z,1.70
2017-08-14T16:31:33.725Z,1.73
2017-08-14T16:34:01.252Z,1.60
2017-08-14T16:36:28.802Z,2.13
2017-08-14T16:38:56.346Z,3.30
2017-08-14T16:41:23.889Z,2.30
2017-08-14T16:43:51.442Z,2.33
2017-08-14T16:46:18.988Z,1.90
2017-08-14T16:48:46.505Z,1.90
2017-08-14T16:51:14.074Z,1.80
2017-08-14T16:53:41.622Z,1.90
2017-08-14T16:56:09.162Z,2.17
2017-08-14T16:58:37.505Z,1.97
2017-08-14T17:01:05.047Z,1.90
2017-08-14T17:03:32.605Z,3.10
2017-08-14T17:06:00.141Z,2.37
2017-08-14T17:08:27.694Z,1.83
2017-08-14T17:10:55.977Z,2.50
2017-08-14T17:13:23.517Z,2.77
2017-08-14T17:15:51.834Z,4.80
2017-08-14T17:18:19.374Z,2.80
2017-08-14T17:20:46.937Z,2.47
2017-08-14T17:23:14.466Z,2.63
2017-08-14T17:25:41.985Z,1.90
2017-08-14T17:28:09.569Z,1.80
2017-08-14T17:30:37.199Z,1.80
2017-08-14T17:33:04.748Z,2.40
2017-08-14T17:35:32.289Z,2.30
2017-08-14T17:37:59.846Z,2.30
2017-08-14T17:40:28.144Z,2.70
2017-08-14T17:42:55.671Z,3.00
2017-08-14T17:45:23.992Z,2.27
2017-08-14T17:47:51.534Z,2.20
2017-08-14T17:50:19.074Z,3.83
2017-08-14T17:52:47.369Z,2.60
2017-08-14T17:55:14.980Z,2.00
2017-08-14T17:57:42.525Z,1.70
2017-08-14T18:00:10.073Z,2.73
2017-08-14T18:02:37.703Z,2.00
2017-08-14T18:05:05.274Z,2.20
2017-08-14T18:07:32.822Z,2.20
2017-08-14T18:10:00.369Z,1.93
2017-08-14T18:12:28.658Z,2.00
2017-08-14T18:14:56.212Z,2.10
2017-08-14T18:17:23.772Z,2.27
2017-08-14T18:19:52.085Z,2.47
2017-08-14T18:22:19.627Z,2.00
2017-08-14T18:24:47.176Z,2.33
2017-08-14T18:27:14.716Z,2.53
2017-08-14T18:29:43.014Z,2.60
2017-08-14T18:32:10.545Z,2.57
2017-08-14T18:34:38.099Z,2.37
2017-08-14T18:37:05.661Z,2.37
2017-08-14T18:39:33.972Z,2.53
2017-08-14T18:42:01.514Z,2.57
2017-08-14T18:44:29.845Z,2.30
2017-08-14T18:46:57.393Z,2.47
2017-08-14T18:49:24.950Z,2.00
2017-08-14T18:51:52.479Z,2.27
2017-08-14T18:54:20.765Z,1.80
2017-08-14T18:56:48.352Z,4.53
2017-08-14T18:59:15.882Z,12.00
2017-08-14T19:01:43.446Z,7.50
2017-08-14T19:04:10.967Z,2.60
2017-08-14T19:06:38.502Z,9.80
2017-08-14T19:09:07.404Z,63.40
2017-08-14T19:11:34.426Z,4.60
2017-08-14T19:14:01.970Z,4.33
2017-08-14T19:16:29.504Z,5.33
2017-08-14T19:18:57.806Z,7.10
2017-08-14T19:21:25.376Z,6.30
2017-08-14T19:23:52.913Z,14.53
2017-08-14T19:26:20.464Z,12.43
2017-08-14T19:28:49.458Z,9.60
2017-08-14T19:31:17.753Z,8.50
2017-08-14T19:33:45.298Z,7.03
2017-08-14T19:36:13.593Z,7.33
2017-08-14T19:38:41.145Z,6.40
2017-08-14T19:41:08.682Z,4.97
2017-08-14T19:43:36.989Z,5.00
2017-08-14T19:46:04.558Z,12.50
2017-08-14T19:48:32.087Z,17.57
2017-08-14T19:50:59.650Z,12.03
2017-08-14T19:53:27.954Z,11.60
2017-08-14T19:55:55.481Z,10.70
2017-08-14T19:58:23.798Z,8.17
2017-08-14T20:00:51.357Z,6.87
2017-08-14T20:03:18.891Z,6.60
2017-08-14T20:05:46.450Z,6.70
2017-08-14T20:08:13.989Z,6.43
2017-08-14T20:10:42.330Z,11.47
2017-08-14T20:13:09.895Z,10.23
2017-08-14T20:15:37.457Z,8.07
2017-08-14T20:18:04.998Z,5.20
2017-08-14T20:20:32.664Z,5.77
2017-08-14T20:23:00.239Z,7.93
2017-08-14T20:25:27.777Z,5.13
2017-08-14T20:27:55.340Z,4.07
2017-08-14T20:30:22.883Z,5.47
2017-08-14T20:32:50.436Z,5.70
2017-08-14T20:35:17.993Z,7.47
2017-08-14T20:37:45.545Z,5.03
2017-08-14T20:40:13.114Z,5.33
2017-08-14T20:42:40.678Z,6.43
2017-08-14T20:45:08.207Z,5.07
2017-08-14T20:47:36.518Z,5.57
2017-08-14T20:50:04.067Z,5.77
2017-08-14T20:52:31.598Z,5.50
2017-08-14T20:54:59.164Z,6.80
2017-08-14T20:57:27.500Z,7.20
2017-08-14T20:59:55.064Z,8.27
2017-08-14T21:02:22.637Z,9.30
2017-08-14T21:04:50.165Z,9.83
2017-08-14T21:07:17.830Z,9.30
2017-08-14T21:09:45.377Z,8.43
2017-08-14T21:12:12.904Z,6.37
2017-08-14T21:14:41.217Z,6.67
2017-08-14T21:17:08.740Z,7.73
2017-08-14T21:19:37.053Z,6.57
2017-08-14T21:22:04.592Z,6.40
2017-08-14T21:24:32.165Z,118.40
2017-08-14T21:26:59.745Z,181.33
2017-08-14T21:29:27.287Z,67.20
2017-08-14T21:31:54.822Z,79.87
2017-08-14T21:34:23.143Z,76.90
2017-08-14T21:36:50.679Z,56.23
2017-08-14T21:39:18.261Z,69.27
2017-08-14T21:41:45.821Z,35.27
2017-08-14T21:44:13.374Z,18.83
2017-08-14T21:46:40.911Z,55.90
2017-08-14T21:49:08.461Z,104.53
2017-08-14T21:51:36.791Z,33.17
2017-08-14T21:54:04.342Z,30.93
2017-08-14T21:56:31.914Z,23.00
2017-08-14T21:58:59.465Z,12.07
2017-08-14T22:01:27.009Z,14.73
2017-08-14T22:03:54.545Z,8.43
2017-08-14T22:06:22.102Z,14.37
2017-08-14T22:08:49.632Z,7.40
2017-08-14T22:11:17.194Z,11.50
2017-08-14T22:13:45.592Z,25.70
2017-08-14T22:16:13.895Z,25.17
2017-08-14T22:18:41.454Z,15.33
2017-08-14T22:21:09.014Z,14.27
2017-08-14T22:23:36.570Z,16.70
2017-08-14T22:26:04.108Z,15.77
2017-08-14T22:28:32.429Z,5.40
2017-08-14T22:30:59.969Z,20.00
2017-08-14T22:33:27.512Z,16.27
2017-08-14T22:35:55.079Z,7.10
2017-08-14T22:38:22.628Z,6.33
2017-08-14T22:40:50.926Z,6.70
2017-08-14T22:43:18.485Z,7.57
2017-08-14T22:45:46.048Z,24.63
2017-08-14T22:48:13.610Z,9.90
2017-08-14T22:50:41.166Z,15.67
2017-08-14T22:53:08.705Z,11.03
2017-08-14T22:55:37.009Z,10.63
2017-08-14T22:58:04.613Z,12.30
2017-08-14T23:00:32.150Z,12.30
2017-08-14T23:02:59.702Z,7.90
2017-08-14T23:05:27.236Z,6.93
2017-08-14T23:07:54.802Z,6.93
2017-08-14T23:10:22.337Z,8.53
2017-08-14T23:12:49.894Z,5.23
2017-08-14T23:15:18.205Z,5.90
2017-08-14T23:17:45.732Z,6.03
2017-08-14T23:20:14.154Z,3.80
2017-08-14T23:22:41.690Z,4.17
2017-08-14T23:25:09.221Z,4.53
2017-08-14T23:27:37.538Z,3.70
2017-08-14T23:30:05.081Z,3.30
2017-08-14T23:32:32.650Z,4.20
2017-08-14T23:35:00.197Z,3.50
2017-08-14T23:37:27.738Z,3.03
2017-08-14T23:39:56.048Z,9.20
2017-08-14T23:42:23.577Z,2.30
2017-08-14T23:44:51.902Z,2.23
2017-08-14T23:47:19.425Z,3.10
2017-08-14T23:49:47.739Z,2.07
2017-08-14T23:52:15.282Z,2.37
2017-08-14T23:54:42.822Z,3.13
2017-08-14T23:57:11.117Z,4.10
2017-08-14T23:59:38.666Z,2.43
